Time;durP1;ratioP1;P1;durP2;ratioP2;P2;SDS_P1;SDS_P2;PMS_P1;PMS_P2;Temp;Humidity;BMP_temperature;BMP_pressure;BME280_temperature;BME280_humidity;BME280_pressure;Samples;Min_cycle;Max_cycle;Signal;HPM_P1;HPM_P2
2023/07/05 00:00:37;;;;;;;3.33;3.03;;;20.50;99.90;;;;;;4858390;29;20488;-83
2023/07/05 00:03:05;;;;;;;3.87;3.17;;;20.40;99.90;;;;;;4859390;29;20471;-81
2023/07/05 00:05:35;;;;;;;5.57;2.80;;;20.50;99.90;;;;;;4858427;29;20555;-83
2023/07/05 00:08:03;;;;;;;3.10;2.80;;;20.50;99.90;;;;;;4863490;29;20460;-83
2023/07/05 00:10:31;;;;;;;3.03;2.73;;;20.50;99.90;;;;;;4876749;29;20495;-81
2023/07/05 00:12:59;;;;;;;2.97;2.67;;;20.50;99.90;;;;;;4877009;29;20502;-83
2023/07/05 00:15:27;;;;;;;4.63;2.90;;;20.40;99.90;;;;;;4863657;29;20510;-82
2023/07/05 00:17:55;;;;;;;3.80;2.93;;;20.50;99.90;;;;;;4877800;29;20456;-82
2023/07/05 00:20:22;;;;;;;2.87;2.30;;;20.60;99.90;;;;;;4878002;29;20532;-84
2023/07/05 00:22:50;;;;;;;5.50;2.80;;;20.60;99.90;;;;;;4861141;29;20457;-82
2023/07/05 00:25:16;;;;;;;2.97;1.97;;;20.60;99.90;;;;;;4875317;29;20487;-82
2023/07/05 00:27:43;;;;;;;3.17;2.47;;;20.70;99.90;;;;;;4877261;29;20444;-82
2023/07/05 00:30:11;;;;;;;2.63;2.43;;;20.60;99.90;;;;;;4887009;29;20531;-84
2023/07/05 00:32:37;;;;;;;2.93;2.67;;;20.60;99.90;;;;;;4885519;29;20482;-84
2023/07/05 00:35:05;;;;;;;4.43;2.80;;;20.60;99.90;;;;;;4862080;29;20485;-83
2023/07/05 00:37:32;;;;;;;2.63;2.43;;;20.70;99.90;;;;;;4858787;29;20472;-83
2023/07/05 00:39:59;;;;;;;2.60;2.07;;;20.60;99.90;;;;;;4859283;29;20457;-83
2023/07/05 00:42:26;;;;;;;4.60;2.30;;;20.60;99.90;;;;;;4875192;29;20474;-83
2023/07/05 00:45:11;;;;;;;3.23;2.47;;;20.70;99.90;;;;;;4855705;29;20447;-83
2023/07/05 00:47:42;;;;;;;2.00;1.90;;;20.60;99.90;;;;;;4871947;29;20850;-83
2023/07/05 00:50:36;;;;;;;3.00;2.60;;;20.50;99.90;;;;;;4858607;29;20499;-84
2023/07/05 00:53:04;;;;;;;2.90;2.43;;;20.50;99.90;;;;;;4861568;29;20476;-85
2023/07/05 00:55:32;;;;;;;4.23;2.50;;;20.50;99.90;;;;;;4866451;29;20483;-82
2023/07/05 00:58:02;;;;;;;3.97;2.20;;;20.50;99.90;;;;;;4865702;29;20452;-80
2023/07/05 01:00:30;;;;;;;2.77;2.37;;;20.50;99.90;;;;;;4884186;29;20441;-84
2023/07/05 01:03:00;;;;;;;2.33;2.10;;;20.40;99.90;;;;;;4884539;29;20478;-84
2023/07/05 01:05:28;;;;;;;2.97;2.60;;;20.50;99.90;;;;;;4882960;29;20524;-82
2023/07/05 01:07:55;;;;;;;2.37;2.03;;;20.40;99.90;;;;;;4868634;29;20520;-82
2023/07/05 01:10:25;;;;;;;2.53;2.07;;;20.50;99.90;;;;;;4887197;29;20472;-82
2023/07/05 01:13:19;;;;;;;6.53;2.73;;;20.40;99.90;;;;;;4862740;29;20518;-82
2023/07/05 01:16:04;;;;;;;2.87;2.30;;;20.40;99.90;;;;;;4891565;29;20579;-85
2023/07/05 01:18:34;;;;;;;3.10;2.13;;;20.30;99.90;;;;;;4888775;29;20448;-80
2023/07/05 01:21:23;;;;;;;2.50;2.30;;;20.30;99.90;;;;;;4867705;29;20556;-82
2023/07/05 01:24:03;;;;;;;2.80;2.33;;;20.10;99.90;;;;;;4886355;29;20445;-81
2023/07/05 01:26:55;;;;;;;5.47;2.33;;;20.10;99.90;;;;;;4871212;29;20611;-83
2023/07/05 01:29:22;;;;;;;2.83;2.20;;;20.10;99.90;;;;;;4889415;29;20481;-83
2023/07/05 01:31:57;;;;;;;2.70;2.50;;;20.10;99.90;;;;;;4869213;29;20555;-82
2023/07/05 01:34:30;;;;;;;2.30;2.13;;;20.20;99.90;;;;;;4879727;29;20481;-81
2023/07/05 01:36:57;;;;;;;2.50;2.10;;;20.10;99.90;;;;;;4852817;29;20476;-83
2023/07/05 01:39:24;;;;;;;1.80;1.70;;;20.10;99.90;;;;;;4874782;29;21925;-82
2023/07/05 01:41:51;;;;;;;1.70;1.60;;;20.10;99.90;;;;;;4874789;29;20489;-81
2023/07/05 01:44:18;;;;;;;3.50;1.73;;;20.00;99.90;;;;;;4846729;29;21070;-83
2023/07/05 01:47:14;;;;;;;2.77;2.40;;;20.10;99.90;;;;;;4854141;29;20584;-83
2023/07/05 01:50:03;;;;;;;3.60;2.20;;;20.10;99.90;;;;;;4852564;29;20453;-84
2023/07/05 01:52:40;;;;;;;2.93;2.40;;;20.00;99.90;;;;;;4851829;29;20472;-81
2023/07/05 01:55:18;;;;;;;2.13;1.93;;;20.00;99.90;;;;;;4867251;29;20488;-81
2023/07/05 01:57:54;;;;;;;2.40;2.20;;;20.10;99.90;;;;;;4867305;29;20472;-82
2023/07/05 02:00:23;;;;;;;2.33;2.13;;;20.10;99.90;;;;;;4855826;29;20456;-83
2023/07/05 02:03:04;;;;;;;2.57;1.80;;;20.10;99.90;;;;;;4874763;29;20466;-82
2023/07/05 02:05:32;;;;;;;2.10;1.67;;;20.20;99.90;;;;;;4872012;29;20475;-80
2023/07/05 02:07:59;;;;;;;2.33;1.97;;;20.10;99.90;;;;;;4870853;29;20452;-80
2023/07/05 02:10:27;;;;;;;2.30;1.50;;;20.10;99.90;;;;;;4868460;29;20461;-82
2023/07/05 02:12:56;;;;;;;1.93;1.67;;;20.10;99.90;;;;;;4869671;29;20839;-82
2023/07/05 02:15:23;;;;;;;1.60;1.50;;;20.10;99.90;;;;;;4870614;29;20476;-84
2023/07/05 02:17:50;;;;;;;2.73;2.10;;;20.20;99.90;;;;;;4869233;29;21013;-82
2023/07/05 02:20:17;;;;;;;2.40;1.80;;;20.10;99.90;;;;;;4862706;29;20564;-82
2023/07/05 02:22:43;;;;;;;1.90;1.77;;;20.10;99.90;;;;;;4854362;29;20464;-82
2023/07/05 02:25:10;;;;;;;2.23;1.73;;;20.30;99.90;;;;;;4868228;29;20492;-83
2023/07/05 02:27:37;;;;;;;2.27;1.50;;;20.30;99.90;;;;;;4871765;29;20949;-82
2023/07/05 02:30:09;;;;;;;1.63;1.53;;;20.30;99.90;;;;;;4851956;29;21341;-83
2023/07/05 02:32:37;;;;;;;2.47;1.50;;;20.30;99.90;;;;;;4854909;29;20563;-82
2023/07/05 02:35:04;;;;;;;1.43;1.33;;;20.30;99.90;;;;;;4870080;29;20922;-83
2023/07/05 02:37:32;;;;;;;2.40;1.77;;;20.30;99.90;;;;;;4820972;29;20471;-81
2023/07/05 02:39:59;;;;;;;2.03;1.83;;;20.20;99.90;;;;;;4827937;29;20512;-82
2023/07/05 02:42:26;;;;;;;2.20;1.90;;;20.10;99.90;;;;;;4870343;29;20437;-83
2023/07/05 02:44:55;;;;;;;2.20;1.30;;;20.10;99.90;;;;;;4870051;29;20461;-82
2023/07/05 02:47:22;;;;;;;2.43;1.90;;;20.00;99.90;;;;;;4867956;29;20509;-82
2023/07/05 02:49:49;;;;;;;2.10;1.67;;;19.90;99.90;;;;;;4867613;29;21036;-83
2023/07/05 02:52:16;;;;;;;2.20;1.40;;;19.90;99.90;;;;;;4864698;29;20495;-84
2023/07/05 02:54:43;;;;;;;1.73;1.63;;;19.90;99.90;;;;;;4850596;29;20461;-83
2023/07/05 02:57:10;;;;;;;1.70;1.60;;;19.80;99.90;;;;;;4871156;29;21954;-83
2023/07/05 02:59:37;;;;;;;1.37;1.07;;;19.70;99.90;;;;;;4868062;29;20812;-82
2023/07/05 03:02:05;;;;;;;1.53;1.43;;;19.70;99.90;;;;;;4853057;29;20471;-82
2023/07/05 03:04:32;;;;;;;2.17;1.10;;;19.70;99.90;;;;;;4868382;29;20452;-82
2023/07/05 03:06:59;;;;;;;1.40;1.13;;;19.80;99.90;;;;;;4871271;29;20481;-81
2023/07/05 03:09:26;;;;;;;1.80;1.17;;;19.60;99.90;;;;;;4822043;29;21210;-84
2023/07/05 03:11:53;;;;;;;2.03;1.00;;;19.60;99.90;;;;;;4857655;29;20458;-83
2023/07/05 03:14:20;;;;;;;1.70;1.30;;;19.60;99.90;;;;;;4868792;29;20472;-83
2023/07/05 03:16:47;;;;;;;1.20;1.10;;;19.40;99.90;;;;;;4869762;29;20762;-83
2023/07/05 03:19:16;;;;;;;1.53;0.90;;;19.30;99.90;;;;;;4853458;29;20464;-83
2023/07/05 03:21:43;;;;;;;1.40;1.03;;;19.40;99.90;;;;;;4856092;29;20473;-82
2023/07/05 03:24:10;;;;;;;1.37;1.27;;;19.40;99.70;;;;;;4868584;29;20694;-84
2023/07/05 03:26:37;;;;;;;1.90;1.20;;;19.40;99.40;;;;;;4869127;29;20570;-83
2023/07/05 03:29:05;;;;;;;0.97;0.90;;;19.50;98.90;;;;;;4868221;29;20502;-83
2023/07/05 03:31:32;;;;;;;2.00;0.80;;;19.40;98.60;;;;;;4868692;29;20455;-83
2023/07/05 03:33:58;;;;;;;1.23;0.97;;;19.30;98.10;;;;;;4870387;29;20472;-82
2023/07/05 03:36:25;;;;;;;1.23;0.77;;;19.20;98.40;;;;;;4869907;29;20493;-83
2023/07/05 03:38:52;;;;;;;2.00;1.30;;;19.10;98.70;;;;;;4867359;29;20471;-85
2023/07/05 03:41:23;;;;;;;1.63;1.27;;;19.20;98.20;;;;;;4864674;29;20468;-83
2023/07/05 03:43:54;;;;;;;1.43;1.30;;;19.10;98.30;;;;;;4875215;29;20489;-81
2023/07/05 03:46:21;;;;;;;1.70;1.20;;;19.00;98.60;;;;;;4880500;29;20492;-81
2023/07/05 03:48:47;;;;;;;1.60;1.00;;;19.00;98.20;;;;;;4860390;29;20460;-82
2023/07/05 03:51:18;;;;;;;1.37;1.00;;;19.00;98.10;;;;;;4860627;29;20869;-82
2023/07/05 03:53:52;;;;;;;1.63;1.03;;;18.90;98.10;;;;;;4882357;29;20512;-83
2023/07/05 03:56:20;;;;;;;1.80;1.50;;;18.80;98.50;;;;;;4888925;29;20567;-85
2023/07/05 03:58:47;;;;;;;1.10;1.00;;;18.90;98.30;;;;;;4889258;29;20453;-83
2023/07/05 04:01:17;;;;;;;2.70;1.00;;;19.10;97.70;;;;;;4878041;29;20472;-81
2023/07/05 04:03:46;;;;;;;1.60;1.10;;;19.10;97.10;;;;;;4855521;29;20470;-82
2023/07/05 04:06:14;;;;;;;1.37;0.93;;;18.70;97.20;;;;;;4869437;29;20555;-83
2023/07/05 04:08:41;;;;;;;1.40;1.30;;;18.60;97.30;;;;;;4877326;29;20460;-82
2023/07/05 04:11:09;;;;;;;1.50;1.10;;;18.50;97.10;;;;;;4874640;29;20464;-82
2023/07/05 04:13:36;;;;;;;2.30;0.93;;;18.30;96.90;;;;;;4858220;29;20918;-83
2023/07/05 04:16:10;;;;;;;1.33;1.17;;;18.40;97.00;;;;;;4877825;29;20477;-83
2023/07/05 04:18:38;;;;;;;2.83;1.40;;;18.20;96.80;;;;;;4874676;29;21550;-83
2023/07/05 04:21:06;;;;;;;2.93;1.20;;;18.20;97.20;;;;;;4873031;29;20471;-83
2023/07/05 04:23:33;;;;;;;2.40;1.27;;;18.20;96.70;;;;;;4872687;29;20463;-81
2023/07/05 04:26:06;;;;;;;2.50;1.23;;;18.30;96.20;;;;;;4859058;29;20499;-83
2023/07/05 04:28:34;;;;;;;2.27;1.30;;;18.20;96.20;;;;;;4871829;29;21069;-82
2023/07/05 04:31:02;;;;;;;2.40;1.20;;;18.10;96.20;;;;;;4851705;29;20464;-81
2023/07/05 04:33:29;;;;;;;2.77;2.33;;;18.10;96.30;;;;;;4871740;29;21054;-82
2023/07/05 04:35:59;;;;;;;1.70;1.30;;;18.00;96.40;;;;;;4871135;29;20468;-83
2023/07/05 04:38:26;;;;;;;2.90;1.87;;;17.90;96.30;;;;;;4890150;29;20468;-83
2023/07/05 04:40:55;;;;;;;1.97;1.43;;;17.90;96.40;;;;;;4892794;29;20448;-82
2023/07/05 04:43:22;;;;;;;2.03;1.10;;;17.90;96.40;;;;;;4877928;29;20482;-86
2023/07/05 04:45:50;;;;;;;1.43;1.20;;;17.90;96.10;;;;;;4891510;29;20489;-83
2023/07/05 04:48:18;;;;;;;4.50;1.73;;;17.90;96.00;;;;;;4894366;29;20524;-82
2023/07/05 04:50:48;;;;;;;1.80;1.50;;;17.90;95.90;;;;;;4889541;29;21814;-85
2023/07/05 04:53:15;;;;;;;1.77;1.20;;;17.90;96.00;;;;;;4862865;29;20908;-81
2023/07/05 04:55:47;;;;;;;2.00;1.57;;;17.90;95.90;;;;;;4862870;29;20480;-81
2023/07/05 04:58:15;;;;;;;2.80;1.50;;;18.00;96.10;;;;;;4876390;29;20472;-83
2023/07/05 05:00:46;;;;;;;4.20;2.00;;;18.20;95.50;;;;;;4855947;29;21005;-84
2023/07/05 05:03:13;;;;;;;2.60;1.33;;;18.10;95.50;;;;;;4874145;29;20975;-83
2023/07/05 05:05:42;;;;;;;2.87;1.83;;;18.20;95.20;;;;;;4872386;29;21761;-83
2023/07/05 05:08:10;;;;;;;4.03;2.10;;;18.30;94.40;;;;;;4876782;29;20665;-81
2023/07/05 05:10:37;;;;;;;3.30;2.20;;;18.10;94.70;;;;;;4857775;29;20466;-85
2023/07/05 05:13:07;;;;;;;1.90;1.70;;;18.20;94.10;;;;;;4876659;29;20505;-83
2023/07/05 05:15:39;;;;;;;3.00;2.10;;;18.10;93.90;;;;;;4869853;29;20472;-80
2023/07/05 05:18:07;;;;;;;3.17;1.67;;;18.30;93.50;;;;;;4870685;29;20475;-83
2023/07/05 05:20:34;;;;;;;2.97;1.80;;;18.30;93.40;;;;;;4870927;29;20453;-81
2023/07/05 05:23:01;;;;;;;2.77;2.03;;;18.30;93.10;;;;;;4870871;29;22261;-83
2023/07/05 05:25:27;;;;;;;3.17;2.10;;;18.50;92.30;;;;;;4854780;29;20531;-84
2023/07/05 05:27:54;;;;;;;3.17;2.87;;;18.50;92.10;;;;;;4855661;29;20448;-80
2023/07/05 05:30:21;;;;;;;4.53;2.17;;;18.20;92.20;;;;;;4834734;29;20512;-79
2023/07/05 05:32:48;;;;;;;2.87;2.00;;;18.10;92.20;;;;;;4873550;29;20484;-83
2023/07/05 05:35:16;;;;;;;4.40;2.03;;;18.10;92.30;;;;;;4872467;29;20949;-83
2023/07/05 05:37:43;;;;;;;4.27;2.13;;;18.30;91.70;;;;;;4872560;29;20461;-83
2023/07/05 05:40:10;;;;;;;3.47;2.27;;;18.20;91.90;;;;;;4879046;29;20463;-82
2023/07/05 05:42:38;;;;;;;2.03;1.90;;;18.30;91.70;;;;;;4875982;29;20467;-83
2023/07/05 05:45:05;;;;;;;5.23;2.30;;;18.30;91.60;;;;;;4856559;29;20488;-84
2023/07/05 05:47:33;;;;;;;2.03;1.80;;;18.30;91.30;;;;;;4860039;29;20457;-83
2023/07/05 05:50:00;;;;;;;3.47;2.00;;;18.40;91.00;;;;;;4855042;29;20525;-81
2023/07/05 05:52:27;;;;;;;5.13;2.57;;;18.30;90.90;;;;;;4858308;29;20468;-82
2023/07/05 05:54:54;;;;;;;2.93;2.37;;;18.00;90.80;;;;;;4860513;29;20492;-84
2023/07/05 05:57:21;;;;;;;2.20;1.60;;;18.10;90.40;;;;;;4874570;29;20468;-81
2023/07/05 05:59:48;;;;;;;4.33;2.80;;;18.10;90.20;;;;;;4856494;29;20464;-83
2023/07/05 06:02:16;;;;;;;2.73;1.87;;;18.20;90.20;;;;;;4854047;29;20465;-84
2023/07/05 06:04:42;;;;;;;3.07;1.97;;;18.10;88.90;;;;;;4858218;29;20472;-85
2023/07/05 06:07:09;;;;;;;2.70;2.23;;;18.00;88.40;;;;;;4871075;29;20475;-84
2023/07/05 06:09:47;;;;;;;2.73;2.00;;;18.20;88.30;;;;;;4873245;29;20507;-83
2023/07/05 06:12:15;;;;;;;3.37;2.40;;;18.30;88.40;;;;;;4856813;29;20520;-84
2023/07/05 06:14:42;;;;;;;3.20;2.13;;;18.40;87.70;;;;;;4872005;29;20492;-83
2023/07/05 06:17:11;;;;;;;2.90;1.70;;;18.40;85.80;;;;;;4875590;29;20450;-83
2023/07/05 06:19:38;;;;;;;4.60;2.53;;;18.60;84.90;;;;;;4873735;29;21382;-83
2023/07/05 06:22:05;;;;;;;2.20;1.63;;;18.50;84.10;;;;;;4885873;29;20520;-83
2023/07/05 06:24:32;;;;;;;1.80;1.43;;;18.40;83.80;;;;;;4865932;29;20491;-84
2023/07/05 06:27:00;;;;;;;3.30;2.07;;;18.30;84.70;;;;;;4878550;29;20479;-82
2023/07/05 06:29:27;;;;;;;2.70;1.63;;;18.10;84.90;;;;;;4882490;29;20460;-82
2023/07/05 06:31:54;;;;;;;2.30;1.57;;;18.00;85.20;;;;;;4882385;29;20481;-81
2023/07/05 06:34:23;;;;;;;3.10;1.83;;;18.00;84.80;;;;;;4891681;29;20579;-81
2023/07/05 06:36:50;;;;;;;1.80;1.60;;;18.00;84.40;;;;;;4872146;29;20464;-81
2023/07/05 06:39:17;;;;;;;2.73;1.30;;;18.00;85.70;;;;;;4887833;29;20808;-83
2023/07/05 06:41:47;;;;;;;2.97;1.50;;;18.20;84.60;;;;;;4870482;29;20726;-84
2023/07/05 06:44:14;;;;;;;1.70;1.30;;;18.10;84.70;;;;;;4885723;29;20551;-82
2023/07/05 06:46:41;;;;;;;2.07;1.37;;;18.10;85.60;;;;;;4883921;29;20484;-82
2023/07/05 06:49:07;;;;;;;1.70;1.37;;;18.10;86.10;;;;;;4858742;29;21288;-84
2023/07/05 06:51:34;;;;;;;2.00;1.47;;;17.90;89.90;;;;;;4870270;29;20453;-82
2023/07/05 06:54:01;;;;;;;2.90;1.70;;;18.00;90.50;;;;;;4865134;29;20500;-84
2023/07/05 06:56:28;;;;;;;2.23;1.67;;;18.20;90.00;;;;;;4867827;29;20492;-82
2023/07/05 06:58:54;;;;;;;2.47;1.63;;;18.00;91.00;;;;;;4866289;29;21039;-82
2023/07/05 07:01:21;;;;;;;2.67;1.50;;;18.20;90.20;;;;;;4866538;29;20463;-84
2023/07/05 07:03:48;;;;;;;2.20;1.33;;;18.20;90.50;;;;;;4869407;29;20963;-83
2023/07/05 07:06:15;;;;;;;2.50;1.43;;;18.20;89.10;;;;;;4846990;29;20480;-81
2023/07/05 07:08:42;;;;;;;1.63;1.20;;;18.00;89.70;;;;;;4868515;29;20465;-85
2023/07/05 07:11:11;;;;;;;1.77;1.00;;;18.00;89.60;;;;;;4850573;29;20453;-84
2023/07/05 07:13:37;;;;;;;3.50;1.20;;;18.00;90.00;;;;;;4870082;29;20595;-84
2023/07/05 07:16:11;;;;;;;3.23;1.37;;;17.90;89.10;;;;;;4866335;29;20492;-84
2023/07/05 07:18:45;;;;;;;1.70;1.60;;;17.70;90.10;;;;;;4869308;29;20462;-83
2023/07/05 07:21:12;;;;;;;1.83;0.93;;;17.80;90.60;;;;;;4867460;29;20444;-83
2023/07/05 07:23:39;;;;;;;3.40;1.40;;;18.20;88.90;;;;;;4871281;29;20453;-82
2023/07/05 07:26:19;;;;;;;2.33;1.13;;;18.10;88.00;;;;;;4849952;29;20472;-82
2023/07/05 07:28:47;;;;;;;1.50;1.40;;;18.00;88.80;;;;;;4867205;29;20468;-83
2023/07/05 07:31:27;;;;;;;3.70;1.20;;;18.20;87.60;;;;;;4849779;29;20448;-85
2023/07/05 07:33:54;;;;;;;2.27;1.20;;;18.30;86.30;;;;;;4869417;29;20720;-83
2023/07/05 07:36:23;;;;;;;1.40;1.20;;;18.20;86.50;;;;;;4851137;29;20480;-82
2023/07/05 07:38:50;;;;;;;2.47;1.60;;;18.00;87.00;;;;;;4867777;29;20487;-84
2023/07/05 07:41:24;;;;;;;1.40;1.20;;;17.90;87.50;;;;;;4869444;29;23117;-83
2023/07/05 07:43:53;;;;;;;2.77;0.70;;;18.00;86.90;;;;;;4851880;29;20477;-82
2023/07/05 07:46:23;;;;;;;1.53;1.17;;;17.90;87.30;;;;;;4870590;29;20500;-83
2023/07/05 07:48:53;;;;;;;1.63;1.30;;;18.20;86.30;;;;;;4853427;29;20487;-83
2023/07/05 07:51:24;;;;;;;2.97;1.10;;;18.00;86.90;;;;;;4871222;29;20799;-84
2023/07/05 07:54:04;;;;;;;1.60;1.30;;;18.10;87.20;;;;;;4868372;29;20488;-82
2023/07/05 07:56:31;;;;;;;1.73;1.03;;;18.20;87.00;;;;;;4866834;29;20490;-83
2023/07/05 07:59:00;;;;;;;1.30;1.10;;;18.10;87.00;;;;;;4856882;29;20585;-83
2023/07/05 08:01:30;;;;;;;1.63;0.90;;;18.10;87.00;;;;;;4872297;29;20498;-82
2023/07/05 08:03:59;;;;;;;2.50;1.17;;;18.30;86.90;;;;;;4871166;29;20467;-84
2023/07/05 08:06:36;;;;;;;1.23;1.10;;;18.70;85.40;;;;;;4857093;29;20560;-82
2023/07/05 08:09:08;;;;;;;1.10;0.93;;;18.60;84.40;;;;;;4854444;29;20556;-83
2023/07/05 08:11:36;;;;;;;1.90;1.10;;;18.30;85.40;;;;;;4870900;29;20465;-83
2023/07/05 08:14:03;;;;;;;1.43;0.90;;;18.20;85.90;;;;;;4857512;29;20498;-83
2023/07/05 08:16:29;;;;;;;2.00;0.90;;;18.20;86.00;;;;;;4871724;29;20505;-83
2023/07/05 08:18:57;;;;;;;1.40;1.00;;;18.20;86.10;;;;;;4869791;29;20479;-85
2023/07/05 08:21:24;;;;;;;6.60;1.00;;;18.50;85.20;;;;;;4872856;29;20472;-83
2023/07/05 08:23:51;;;;;;;2.40;1.30;;;18.60;83.50;;;;;;4875841;29;20471;-83
2023/07/05 08:26:18;;;;;;;3.07;1.30;;;18.80;82.90;;;;;;4872828;29;20822;-84
2023/07/05 08:28:45;;;;;;;1.63;1.23;;;18.90;81.90;;;;;;4875367;29;20599;-82
2023/07/05 08:31:12;;;;;;;2.70;1.10;;;18.90;81.60;;;;;;4872881;29;20464;-82
2023/07/05 08:33:40;;;;;;;1.10;1.00;;;18.90;81.80;;;;;;4873715;29;20840;-81
2023/07/05 08:36:13;;;;;;;2.47;1.00;;;18.70;81.60;;;;;;4855753;29;20484;-82
2023/07/05 08:38:47;;;;;;;1.73;1.10;;;19.00;80.10;;;;;;4872572;29;20460;-84
2023/07/05 08:41:43;;;;;;;1.30;1.20;;;18.70;80.60;;;;;;4856149;29;20460;-83
2023/07/05 08:44:25;;;;;;;2.50;1.10;;;18.50;81.80;;;;;;4842849;29;20464;-80
2023/07/05 08:47:01;;;;;;;1.47;0.80;;;18.50;81.80;;;;;;4843371;29;20544;-82
2023/07/05 08:49:40;;;;;;;1.83;1.17;;;18.30;82.00;;;;;;4849849;29;20824;-80
2023/07/05 08:52:24;;;;;;;0.90;0.70;;;18.40;81.80;;;;;;4856178;29;20543;-84
2023/07/05 08:54:56;;;;;;;2.60;1.53;;;18.40;81.60;;;;;;4857288;29;20484;-83
2023/07/05 08:57:56;;;;;;;1.30;0.80;;;18.60;80.60;;;;;;4843609;29;20464;-81
2023/07/05 09:00:41;;;;;;;1.77;1.00;;;18.60;80.10;;;;;;4858931;29;20539;-81
2023/07/05 09:03:11;;;;;;;3.53;1.63;;;18.50;81.20;;;;;;4841400;29;20448;-83
2023/07/05 09:05:55;;;;;;;2.33;1.40;;;18.70;81.50;;;;;;4844592;29;22104;-81
2023/07/05 09:08:35;;;;;;;4.10;1.10;;;19.40;80.60;;;;;;4847080;29;20524;-80
2023/07/05 09:11:10;;;;;;;2.57;0.80;;;20.30;77.00;;;;;;4836304;29;20443;-82
2023/07/05 09:13:39;;;;;;;1.37;0.93;;;20.70;72.80;;;;;;4843386;29;20487;-81
2023/07/05 09:16:37;;;;;;;2.57;1.00;;;21.30;70.30;;;;;;4845865;29;20489;-81
2023/07/05 09:19:33;;;;;;;2.30;1.20;;;21.90;68.30;;;;;;4851915;29;20457;-82
2023/07/05 09:22:04;;;;;;;1.33;1.00;;;21.60;65.40;;;;;;4863921;29;20451;-80
2023/07/05 09:24:39;;;;;;;1.70;1.47;;;21.30;66.10;;;;;;4853465;29;20440;-82
2023/07/05 09:27:14;;;;;;;2.57;0.80;;;22.00;63.60;;;;;;4887710;29;20480;-82
2023/07/05 09:30:04;;;;;;;1.30;1.20;;;22.60;60.70;;;;;;4889441;29;20539;-81
2023/07/05 09:32:39;;;;;;;1.57;1.00;;;22.00;60.50;;;;;;4874845;29;20473;-85
2023/07/05 09:35:20;;;;;;;2.10;1.00;;;21.90;61.20;;;;;;4874986;29;20540;-84
2023/07/05 09:38:10;;;;;;;2.53;1.10;;;21.40;61.50;;;;;;4891655;29;20473;-84
2023/07/05 09:40:49;;;;;;;3.60;1.10;;;21.00;63.20;;;;;;4875509;29;20556;-85
2023/07/05 09:43:29;;;;;;;2.90;1.60;;;21.20;63.20;;;;;;4878865;29;20453;-85
2023/07/05 09:46:05;;;;;;;4.87;1.13;;;21.30;63.50;;;;;;4871523;29;20476;-85
2023/07/05 09:48:42;;;;;;;1.53;1.30;;;21.20;63.40;;;;;;4891568;29;20480;-84
2023/07/05 09:51:11;;;;;;;1.53;1.13;;;21.20;63.00;;;;;;4875829;29;20543;-83
2023/07/05 09:54:07;;;;;;;1.90;1.20;;;21.20;61.90;;;;;;4874387;29;20481;-82
2023/07/05 09:56:58;;;;;;;4.53;1.33;;;21.20;61.20;;;;;;4890144;29;20504;-85
2023/07/05 09:59:26;;;;;;;1.80;0.90;;;21.30;61.30;;;;;;4868322;29;20481;-82
2023/07/05 10:01:55;;;;;;;3.03;1.23;;;21.20;61.10;;;;;;4872327;29;20449;-81
2023/07/05 10:04:29;;;;;;;1.50;1.20;;;21.70;60.90;;;;;;4871057;29;20561;-85
2023/07/05 10:07:00;;;;;;;2.03;1.30;;;22.10;59.30;;;;;;4872274;29;20564;-83
2023/07/05 10:09:27;;;;;;;2.10;1.10;;;22.10;58.90;;;;;;4885154;29;20468;-83
2023/07/05 10:11:59;;;;;;;2.07;1.00;;;21.70;59.20;;;;;;4870258;29;20464;-83
2023/07/05 10:14:33;;;;;;;1.93;1.23;;;21.60;58.90;;;;;;4860912;29;20490;-83
2023/07/05 10:17:06;;;;;;;3.33;1.20;;;21.60;59.80;;;;;;4876828;29;20484;-84
2023/07/05 10:19:49;;;;;;;1.93;1.00;;;22.20;59.30;;;;;;4859832;29;20463;-84
2023/07/05 10:22:33;;;;;;;2.70;1.20;;;22.60;57.80;;;;;;4876943;29;20587;-84
2023/07/05 10:25:13;;;;;;;1.57;1.17;;;22.60;56.00;;;;;;4872809;29;20456;-83
2023/07/05 10:27:43;;;;;;;2.47;1.10;;;22.40;56.70;;;;;;4872557;29;20456;-84
2023/07/05 10:30:14;;;;;;;3.13;1.20;;;22.10;56.60;;;;;;4854850;29;20457;-85
2023/07/05 10:32:44;;;;;;;2.90;1.20;;;22.00;56.70;;;;;;4869324;29;21242;-81
2023/07/05 10:35:23;;;;;;;1.60;1.50;;;21.90;56.10;;;;;;4872826;29;20511;-82
2023/07/05 10:37:51;;;;;;;4.37;1.60;;;22.60;56.10;;;;;;4874840;29;20600;-84
2023/07/05 10:40:19;;;;;;;3.40;1.10;;;22.60;55.10;;;;;;4874726;29;21710;-83
2023/07/05 10:43:04;;;;;;;2.30;1.57;;;22.80;54.40;;;;;;4873849;29;20500;-81
2023/07/05 10:45:35;;;;;;;3.27;1.10;;;22.10;55.30;;;;;;4859888;29;20472;-83
2023/07/05 10:48:02;;;;;;;3.90;1.37;;;21.80;55.60;;;;;;4870763;29;20528;-83
2023/07/05 10:50:37;;;;;;;3.20;1.10;;;21.50;55.70;;;;;;4884278;29;20461;-83
2023/07/05 10:53:15;;;;;;;2.10;1.07;;;21.40;56.50;;;;;;4887492;29;20452;-83
2023/07/05 10:56:13;;;;;;;3.10;1.27;;;21.50;56.70;;;;;;4888221;29;20504;-82
2023/07/05 10:58:49;;;;;;;3.30;1.30;;;22.10;55.50;;;;;;4859850;29;20456;-84
2023/07/05 11:01:21;;;;;;;2.30;0.97;;;22.20;54.40;;;;;;4867268;29;20739;-84
2023/07/05 11:04:05;;;;;;;3.33;1.40;;;22.00;54.70;;;;;;4857990;29;20905;-84
2023/07/05 11:06:36;;;;;;;2.20;1.17;;;21.90;54.80;;;;;;4872472;29;20486;-84
2023/07/05 11:09:04;;;;;;;2.07;1.40;;;22.30;55.30;;;;;;4868518;29;20463;-83
2023/07/05 11:11:40;;;;;;;2.30;1.20;;;22.80;54.30;;;;;;4853827;29;20513;-83
2023/07/05 11:14:13;;;;;;;1.53;1.00;;;22.90;53.80;;;;;;4870815;29;20444;-85
2023/07/05 11:16:46;;;;;;;2.03;1.00;;;22.90;53.70;;;;;;4853891;29;20593;-83
2023/07/05 11:19:22;;;;;;;1.70;1.27;;;23.00;53.30;;;;;;4849556;29;20550;-85
2023/07/05 11:21:50;;;;;;;2.23;1.23;;;23.10;53.00;;;;;;4854686;29;20494;-82
2023/07/05 11:24:32;;;;;;;2.00;1.40;;;23.10;53.00;;;;;;4872690;29;20484;-81
2023/07/05 11:27:21;;;;;;;3.60;1.47;;;23.10;53.30;;;;;;4872274;29;20512;-84
2023/07/05 11:29:52;;;;;;;2.53;1.20;;;22.80;53.50;;;;;;4856520;29;20509;-83
2023/07/05 11:32:47;;;;;;;2.17;1.47;;;22.90;53.40;;;;;;4870041;29;20472;-84
2023/07/05 11:35:46;;;;;;;2.33;1.10;;;22.90;53.70;;;;;;4849772;29;20502;-82
2023/07/05 11:38:35;;;;;;;2.00;1.30;;;23.20;53.30;;;;;;4842586;29;20481;-83
2023/07/05 11:41:06;;;;;;;2.73;1.60;;;24.20;51.70;;;;;;4866945;29;20473;-84
2023/07/05 11:43:36;;;;;;;1.30;1.10;;;25.10;51.20;;;;;;4882216;29;20473;-83
2023/07/05 11:46:16;;;;;;;2.00;1.70;;;24.60;49.20;;;;;;4857322;29;20500;-83
2023/07/05 11:48:45;;;;;;;3.27;1.53;;;23.90;50.00;;;;;;4857174;29;20471;-84
2023/07/05 11:51:26;;;;;;;1.30;1.20;;;23.60;50.20;;;;;;4857595;29;20473;-84
2023/07/05 11:54:08;;;;;;;2.90;1.23;;;22.80;51.60;;;;;;4862523;29;20469;-83
2023/07/05 11:56:44;;;;;;;2.00;1.20;;;22.40;53.00;;;;;;4856399;29;20498;-84
2023/07/05 11:59:17;;;;;;;1.53;1.40;;;22.30;53.80;;;;;;4858981;29;20461;-84
2023/07/05 12:01:49;;;;;;;2.27;1.10;;;22.40;54.30;;;;;;4857853;29;20583;-84
2023/07/05 12:04:23;;;;;;;3.90;1.43;;;23.60;53.20;;;;;;4858916;29;20520;-84
2023/07/05 12:06:51;;;;;;;2.27;1.70;;;23.60;53.10;;;;;;4877573;29;21738;-84
2023/07/05 12:09:34;;;;;;;1.50;1.37;;;23.40;53.70;;;;;;4889975;29;20460;-84
2023/07/05 12:12:03;;;;;;;2.87;1.77;;;23.50;53.30;;;;;;4873478;29;20482;-87
2023/07/05 12:14:30;;;;;;;2.63;1.60;;;23.40;52.70;;;;;;4866282;29;20476;-83
2023/07/05 12:17:01;;;;;;;2.17;1.50;;;23.20;51.50;;;;;;4869888;29;20484;-83
2023/07/05 12:19:30;;;;;;;2.00;1.33;;;23.00;51.80;;;;;;4865706;29;20548;-83
2023/07/05 12:22:02;;;;;;;2.90;1.47;;;22.60;52.90;;;;;;4845191;29;20531;-83
2023/07/05 12:24:58;;;;;;;3.37;1.60;;;22.30;54.00;;;;;;4839185;29;20465;-80
2023/07/05 12:27:32;;;;;;;1.43;1.03;;;22.50;54.50;;;;;;4829755;29;20499;-84
2023/07/05 12:30:03;;;;;;;1.80;1.47;;;22.30;54.90;;;;;;4825540;29;20473;-83
2023/07/05 12:32:31;;;;;;;2.50;1.40;;;22.00;56.60;;;;;;4844486;29;21839;-83
2023/07/05 12:35:17;;;;;;;3.07;1.60;;;21.80;57.40;;;;;;4845336;29;22041;-82
2023/07/05 12:37:45;;;;;;;1.53;1.40;;;21.70;58.00;;;;;;4848808;29;20535;-82
2023/07/05 12:40:32;;;;;;;1.57;1.20;;;21.60;58.70;;;;;;4855196;29;20459;-84
2023/07/05 12:43:03;;;;;;;1.87;1.57;;;21.70;59.40;;;;;;4877721;29;20472;-84
2023/07/05 12:45:35;;;;;;;2.43;1.50;;;21.50;60.00;;;;;;4876798;29;20582;-84
2023/07/05 12:48:24;;;;;;;1.90;1.30;;;21.30;61.80;;;;;;4857263;29;20452;-83
2023/07/05 12:51:10;;;;;;;1.93;1.83;;;21.40;62.80;;;;;;4856669;29;20468;-84
2023/07/05 12:53:37;;;;;;;1.63;1.23;;;21.50;62.00;;;;;;4860896;29;20463;-81
2023/07/05 12:56:06;;;;;;;1.30;1.20;;;21.70;61.80;;;;;;4872412;29;20512;-84
2023/07/05 12:58:38;;;;;;;3.30;1.57;;;22.00;61.20;;;;;;4869692;29;20464;-82
2023/07/05 13:01:09;;;;;;;1.40;1.30;;;22.10;60.00;;;;;;4868755;29;20465;-84
2023/07/05 13:03:44;;;;;;;3.17;1.90;;;22.20;60.10;;;;;;4871159;29;20459;-84
2023/07/05 13:06:15;;;;;;;1.83;1.40;;;22.60;59.80;;;;;;4850793;29;21277;-83
2023/07/05 13:08:49;;;;;;;5.03;1.20;;;22.80;58.90;;;;;;4856230;29;20469;-85
2023/07/05 13:11:17;;;;;;;2.47;1.53;;;22.70;59.30;;;;;;4859074;29;20494;-84